Maribo, Denmark

06:35 PM CEST on August 25, 2016 (GMT +0200)
Kastanievej | | Change Station

Elev 13 ft 54.80 °N, 11.62 °E | Updated 10 seconds ago

Clear
Klart
82.9 ° F
Føles som 83 ° F
N
1.2
Vind Skiftende Vind
Gusts 5.0 mph

I dag
Høj -- | Lav -- ° F
--% Risiko for nedbør
I går
Høj -- | Lav -- ° F
Precip. -- tommer
Tryk 30.01 tommer
Sigtbarhed -9999.0 mil
Skyer
Varmeindeks 83 ° F
Dugpunkt 59 ° F
Luftfugtighed 43%
Regnmængde 0.00 tommer
Snedybde Ikke tilgængelig.
6:08 AM 8:22 PM
Sidste kvartal, 44% visible
METAR EDHK 251550Z 17006KT 130V200 CAVOK 30/16 Q1016
Tryk 30.01 tommer
Sigtbarhed -9999.0 mil
Skyer
Varmeindeks 83 ° F
Dugpunkt 59 ° F
Luftfugtighed 43%
Regnmængde 0.00 tommer
Snedybde Ikke tilgængelig.
6:08 AM 8:22 PM
Sidste kvartal, 44% visible
METAR EDHK 251550Z 17006KT 130V200 CAVOK 30/16 Q1016

10-Day Weather Forecast

×

Almanac

Astronomi

Aug. 25, 2016 Opgang Nedgang
Faktisktidspunkt
Civilttusmørke
Nautisktusmørke
Astronomisktusmørke
Måne
Synligtlys’ længde
Dagens længde
Tomorrow will be .
, % of the Moon is Illuminated

Ekstremer i dag

Country Highs Country Lows

Community

WunderPhotos

Upload Photos

1,934,869 Billeder uploaded!

WunderBlog® & News

Nearby

Luftkvalitet

  Luftkvalitet AQ-indeks Forureningskilder
Not available.

Snedybde

Station Depth Højde

Jordskælvsaktivitet

By Distance Mag. Time & Date
Minimum magnitude displayed is 2.5.

Kystnære vandtemperaturer

Sted Temperatur

Stations

Vejrstationer i nærheden

Stationenssted Temp. Vindeffekt Dugpunkt Luftfugtighed Vind Precip. Elev Opdateret Type